createdAt,value
2022-10-17T00:01:06.232Z,8.68
2022-10-17T00:03:35.828Z,6.35
2022-10-17T00:06:21.815Z,9.82
2022-10-17T00:08:49.318Z,7.18
2022-10-17T00:11:20.272Z,6.40
2022-10-17T00:13:50.167Z,7.75
2022-10-17T00:16:37.156Z,9.25
2022-10-17T00:19:07.274Z,8.80
2022-10-17T00:21:35.068Z,8.30
2022-10-17T00:24:02.587Z,7.35
2022-10-17T00:26:30.280Z,9.70
2022-10-17T00:28:58.188Z,11.13
2022-10-17T00:31:25.755Z,12.43
2022-10-17T00:33:53.598Z,11.75
2022-10-17T00:36:23.966Z,8.18
2022-10-17T00:38:54.285Z,11.02
2022-10-17T00:41:25.320Z,12.90
2022-10-17T00:43:52.681Z,13.10
2022-10-17T00:46:21.774Z,9.88
2022-10-17T00:48:52.672Z,11.45
2022-10-17T00:51:27.523Z,11.25
2022-10-17T00:53:56.536Z,11.48
2022-10-17T00:56:24.149Z,13.02
2022-10-17T00:58:52.369Z,9.77
2022-10-17T01:01:20.098Z,11.38
2022-10-17T01:03:47.653Z,12.52
2022-10-17T01:06:15.125Z,9.98
2022-10-17T01:08:42.905Z,11.45
2022-10-17T01:11:29.144Z,12.65
2022-10-17T01:14:25.483Z,11.85
2022-10-17T01:17:11.966Z,11.90
2022-10-17T01:19:50.701Z,10.15
2022-10-17T01:22:30.227Z,11.82
2022-10-17T01:25:12.829Z,9.05
2022-10-17T01:27:49.537Z,4.50
2022-10-17T01:30:44.822Z,6.78
2022-10-17T01:33:32.790Z,6.57
2022-10-17T01:36:13.090Z,9.10
2022-10-17T01:38:46.093Z,5.18
2022-10-17T01:41:40.677Z,6.30
2022-10-17T01:44:28.263Z,9.70
2022-10-17T01:47:04.601Z,10.75
2022-10-17T01:49:35.141Z,6.60
2022-10-17T01:52:14.912Z,6.47
2022-10-17T01:54:44.241Z,7.60
2022-10-17T01:57:20.514Z,5.40
2022-10-17T01:59:51.875Z,4.72
2022-10-17T02:02:21.291Z,9.07
2022-10-17T02:04:51.539Z,6.05
2022-10-17T02:07:19.247Z,6.10
2022-10-17T02:09:47.284Z,7.23
2022-10-17T02:12:56.381Z,7.35
2022-10-17T02:15:44.954Z,7.28
2022-10-17T02:18:41.787Z,8.35
2022-10-17T02:21:14.580Z,7.10
2022-10-17T02:23:54.051Z,11.95
2022-10-17T02:26:47.584Z,9.45
2022-10-17T02:29:25.775Z,10.90
2022-10-17T02:32:18.068Z,7.00
2022-10-17T02:34:50.800Z,9.15
2022-10-17T02:37:25.519Z,7.35
2022-10-17T02:39:56.238Z,7.38
2022-10-17T02:42:26.368Z,4.85
2022-10-17T02:44:59.148Z,7.63
2022-10-17T02:47:32.065Z,6.95
2022-10-17T02:50:00.250Z,8.05
2022-10-17T02:52:36.637Z,9.82
2022-10-17T02:55:18.578Z,6.40
2022-10-17T02:57:54.576Z,11.35
2022-10-17T03:00:23.842Z,9.93
2022-10-17T03:02:53.107Z,5.07
2022-10-17T03:05:23.441Z,7.68
2022-10-17T03:07:51.774Z,7.20
2022-10-17T03:10:19.724Z,7.60
2022-10-17T03:12:47.199Z,6.78
2022-10-17T03:15:15.135Z,8.40
2022-10-17T03:17:43.057Z,12.27
2022-10-17T03:20:11.193Z,7.38
2022-10-17T03:22:38.789Z,8.50
2022-10-17T03:25:06.692Z,9.18
2022-10-17T03:27:34.432Z,7.00
2022-10-17T03:30:02.323Z,10.43
2022-10-17T03:32:34.200Z,9.63
2022-10-17T03:35:02.732Z,11.10
2022-10-17T03:37:30.905Z,10.45
2022-10-17T03:39:58.989Z,8.40
2022-10-17T03:42:26.547Z,9.00
2022-10-17T03:44:54.050Z,8.85
2022-10-17T03:47:21.584Z,8.15
2022-10-17T03:49:49.305Z,9.38
2022-10-17T03:52:16.756Z,8.73
2022-10-17T03:54:44.294Z,7.13
2022-10-17T03:57:12.069Z,8.35
2022-10-17T03:59:39.617Z,6.80
2022-10-17T04:02:07.229Z,8.45
2022-10-17T04:04:34.661Z,9.40
2022-10-17T04:07:02.355Z,10.32
2022-10-17T04:09:30.172Z,8.50
2022-10-17T04:11:57.836Z,5.93
2022-10-17T04:14:25.417Z,5.82
2022-10-17T04:16:53.644Z,7.28
2022-10-17T04:19:21.265Z,4.63
2022-10-17T04:21:48.813Z,10.32
2022-10-17T04:24:16.515Z,8.13
2022-10-17T04:26:44.181Z,8.10
2022-10-17T04:29:12.046Z,7.10
2022-10-17T04:31:39.569Z,6.18
2022-10-17T04:34:06.997Z,7.68
2022-10-17T04:36:34.527Z,7.47
2022-10-17T04:39:03.661Z,7.10
2022-10-17T04:41:31.706Z,8.02
2022-10-17T04:43:59.478Z,8.10
2022-10-17T04:46:27.130Z,4.93
2022-10-17T04:48:54.951Z,8.82
2022-10-17T04:51:24.618Z,4.60
2022-10-17T04:53:54.904Z,10.07
2022-10-17T04:56:24.711Z,5.30
2022-10-17T04:58:52.681Z,6.25
2022-10-17T05:01:23.133Z,8.05
2022-10-17T05:03:50.960Z,6.28
2022-10-17T05:06:24.615Z,8.75
2022-10-17T05:08:52.293Z,6.50
2022-10-17T05:11:27.570Z,11.00
2022-10-17T05:13:57.990Z,7.43
2022-10-17T05:16:26.455Z,7.30
2022-10-17T05:18:56.612Z,5.78
2022-10-17T05:21:26.534Z,7.15
2022-10-17T05:23:54.138Z,8.35
2022-10-17T05:26:22.409Z,6.28
2022-10-17T05:28:52.427Z,10.68
2022-10-17T05:31:20.374Z,6.15
2022-10-17T05:33:48.098Z,6.90
2022-10-17T05:36:15.828Z,7.68
2022-10-17T05:38:43.439Z,6.35
2022-10-17T05:41:11.235Z,9.02
2022-10-17T05:43:38.956Z,8.63
2022-10-17T05:46:07.093Z,8.10
2022-10-17T05:48:34.940Z,8.68
2022-10-17T05:51:08.867Z,7.55
2022-10-17T05:53:40.741Z,10.18
2022-10-17T05:56:10.370Z,9.55
2022-10-17T05:59:00.707Z,7.57
2022-10-17T06:01:29.109Z,8.20
2022-10-17T06:03:57.045Z,6.33
2022-10-17T06:06:24.591Z,7.60
2022-10-17T06:08:52.385Z,7.70
2022-10-17T06:11:20.117Z,8.50
2022-10-17T06:13:47.530Z,6.30
2022-10-17T06:16:15.050Z,8.43
2022-10-17T06:18:42.765Z,9.57
2022-10-17T06:21:12.215Z,6.28
2022-10-17T06:23:39.843Z,7.70
2022-10-17T06:26:07.790Z,12.85
2022-10-17T06:28:36.097Z,7.88
2022-10-17T06:31:08.890Z,14.70
2022-10-17T06:33:37.242Z,6.22
2022-10-17T06:36:06.894Z,9.60
2022-10-17T06:38:35.236Z,8.50
2022-10-17T06:41:22.936Z,6.25
2022-10-17T06:43:50.640Z,12.73
2022-10-17T06:46:19.657Z,8.75
2022-10-17T06:51:14.649Z,6.93
2022-10-17T06:53:42.492Z,7.55
2022-10-17T06:56:10.660Z,8.85
2022-10-17T06:58:39.745Z,7.77
2022-10-17T07:03:40.221Z,7.43
2022-10-17T07:06:07.904Z,8.30
2022-10-17T07:08:35.363Z,7.35
2022-10-17T07:11:11.123Z,7.97
2022-10-17T07:13:39.675Z,9.20
2022-10-17T07:16:08.058Z,8.65
2022-10-17T07:18:35.736Z,7.90
2022-10-17T07:21:04.115Z,8.93
2022-10-17T07:23:33.752Z,5.72
2022-10-17T07:26:03.319Z,7.55
2022-10-17T07:28:30.856Z,4.93
2022-10-17T07:31:07.175Z,7.05
2022-10-17T07:33:35.179Z,6.30
2022-10-17T07:36:05.193Z,4.82
2022-10-17T07:38:32.897Z,6.43
2022-10-17T07:41:02.792Z,9.63
2022-10-17T07:43:30.879Z,6.65
2022-10-17T07:45:58.760Z,5.77
2022-10-17T07:48:26.404Z,6.28
2022-10-17T07:50:54.069Z,7.50
2022-10-17T07:53:21.974Z,7.75
2022-10-17T07:55:49.838Z,4.73
2022-10-17T07:58:17.777Z,7.78
2022-10-17T08:00:48.573Z,6.80
2022-10-17T08:03:16.591Z,7.90
2022-10-17T08:05:44.098Z,8.13
2022-10-17T08:08:11.922Z,7.50
2022-10-17T08:10:39.750Z,7.28
2022-10-17T08:13:07.540Z,6.10
2022-10-17T08:15:37.747Z,6.85
2022-10-17T08:18:05.524Z,5.80
2022-10-17T08:20:33.527Z,7.35
2022-10-17T08:23:01.106Z,5.38
2022-10-17T08:25:28.630Z,5.30
2022-10-17T08:27:56.557Z,5.45
2022-10-17T08:30:24.437Z,4.90
2022-10-17T08:32:52.193Z,7.28
2022-10-17T08:35:21.886Z,5.18
2022-10-17T08:37:49.801Z,7.50
2022-10-17T08:40:22.585Z,4.85
2022-10-17T08:42:56.526Z,5.82
2022-10-17T08:45:36.562Z,5.68
2022-10-17T08:48:13.583Z,4.10
2022-10-17T08:50:46.580Z,8.38
2022-10-17T08:53:32.013Z,5.85
2022-10-17T08:56:07.215Z,7.32
2022-10-17T08:58:38.047Z,4.90
2022-10-17T09:01:28.045Z,5.22
2022-10-17T09:04:01.665Z,6.03
2022-10-17T09:06:37.394Z,4.90
2022-10-17T09:09:17.286Z,5.55
2022-10-17T09:11:54.074Z,6.57
2022-10-17T09:14:58.808Z,5.15
2022-10-17T09:17:38.881Z,5.32
2022-10-17T09:20:18.789Z,5.03
2022-10-17T09:22:59.846Z,6.68
2022-10-17T09:25:28.154Z,3.80
2022-10-17T09:28:10.745Z,6.65
2022-10-17T09:30:55.890Z,5.50
2022-10-17T09:33:35.137Z,8.00
2022-10-17T09:36:22.914Z,7.05
2022-10-17T09:38:56.580Z,5.22
2022-10-17T09:41:44.857Z,6.40
2022-10-17T09:46:55.254Z,7.13
2022-10-17T09:49:37.986Z,6.18
2022-10-17T09:52:30.673Z,6.22
2022-10-17T09:55:04.569Z,5.53
2022-10-17T09:57:56.433Z,8.07
2022-10-17T10:00:31.778Z,6.90
2022-10-17T10:03:28.514Z,6.25
2022-10-17T10:06:03.033Z,4.05
2022-10-17T10:08:36.119Z,7.30
2022-10-17T10:11:13.458Z,7.38
2022-10-17T10:13:43.152Z,4.15
2022-10-17T10:16:30.194Z,4.97
2022-10-17T10:18:58.283Z,6.15
2022-10-17T10:21:27.593Z,9.05
2022-10-17T10:24:04.274Z,5.63
2022-10-17T10:26:53.508Z,6.30
2022-10-17T10:29:34.125Z,8.10
2022-10-17T10:32:07.390Z,3.45
2022-10-17T10:34:36.098Z,5.88
2022-10-17T10:39:38.041Z,5.32
2022-10-17T10:42:17.203Z,4.82
2022-10-17T10:47:20.649Z,5.65
2022-10-17T10:49:52.780Z,4.75
2022-10-17T10:52:30.452Z,5.47
2022-10-17T10:55:17.555Z,7.40
2022-10-17T10:57:48.012Z,4.18
2022-10-17T11:00:24.518Z,4.68
2022-10-17T11:03:01.839Z,4.40
2022-10-17T11:06:17.135Z,5.05
2022-10-17T11:09:00.474Z,7.18
2022-10-17T11:11:39.924Z,3.83
2022-10-17T11:14:16.711Z,4.22
2022-10-17T11:17:29.030Z,5.30
2022-10-17T11:19:59.087Z,4.15
2022-10-17T11:22:37.334Z,4.85
2022-10-17T11:25:17.388Z,4.68
2022-10-17T11:27:44.949Z,4.75
2022-10-17T11:30:16.741Z,6.93
2022-10-17T11:32:54.156Z,5.55
2022-10-17T11:35:25.251Z,5.78
2022-10-17T11:38:10.723Z,6.97
2022-10-17T11:40:43.566Z,6.20
2022-10-17T11:43:11.068Z,5.90
2022-10-17T11:45:47.083Z,8.60
2022-10-17T11:48:25.533Z,6.57
2022-10-17T11:53:55.751Z,8.05
2022-10-17T11:56:42.754Z,4.45
2022-10-17T11:59:10.438Z,7.00
2022-10-17T12:01:47.123Z,5.68
2022-10-17T12:04:20.424Z,6.57
2022-10-17T12:07:13.724Z,5.03
2022-10-17T12:10:13.367Z,4.93
2022-10-17T12:12:41.127Z,6.43
2022-10-17T12:15:11.599Z,8.73
2022-10-17T12:17:45.400Z,4.70
2022-10-17T12:20:25.738Z,6.75
2022-10-17T12:23:03.049Z,5.82
2022-10-17T12:28:21.074Z,5.07
2022-10-17T12:31:05.853Z,7.78
2022-10-17T12:33:48.466Z,5.63
2022-10-17T12:36:18.730Z,5.97
2022-10-17T12:38:50.058Z,5.38
2022-10-17T12:41:40.642Z,8.57
2022-10-17T12:44:14.097Z,5.47
2022-10-17T12:47:01.857Z,7.22
2022-10-17T12:49:47.488Z,5.73
2022-10-17T12:52:18.097Z,6.93
2022-10-17T12:55:12.969Z,5.78
2022-10-17T12:57:48.532Z,5.82
2022-10-17T13:00:33.586Z,6.75
2022-10-17T13:03:19.389Z,5.43
2022-10-17T13:05:56.860Z,5.53
2022-10-17T13:08:29.478Z,5.35
2022-10-17T13:10:57.833Z,4.28
2022-10-17T13:13:45.272Z,5.73
2022-10-17T13:16:39.061Z,5.35
2022-10-17T13:19:15.313Z,6.68
2022-10-17T13:21:59.933Z,5.13
2022-10-17T13:24:39.193Z,8.13
2022-10-17T13:27:27.713Z,6.03
2022-10-17T13:32:35.074Z,8.18
2022-10-17T13:35:13.232Z,6.40
2022-10-17T13:37:50.230Z,6.15
2022-10-17T13:40:49.598Z,8.40
2022-10-17T13:43:19.341Z,6.28
2022-10-17T13:45:50.525Z,6.95
2022-10-17T13:48:23.780Z,5.97
2022-10-17T13:50:56.390Z,5.05
2022-10-17T13:53:31.036Z,6.88
2022-10-17T13:56:16.144Z,6.88
2022-10-17T13:58:49.362Z,6.43
2022-10-17T14:01:19.095Z,5.88
2022-10-17T14:03:50.182Z,4.78
2022-10-17T14:06:26.986Z,5.82
2022-10-17T14:09:07.425Z,5.82
2022-10-17T14:11:44.210Z,7.25
2022-10-17T14:14:24.819Z,9.07
2022-10-17T14:16:52.950Z,5.97
2022-10-17T14:19:30.846Z,4.85
2022-10-17T14:22:23.581Z,3.83
2022-10-17T14:24:53.401Z,4.00
2022-10-17T14:27:26.989Z,10.20
2022-10-17T14:30:00.969Z,7.28
2022-10-17T14:32:34.819Z,10.25
2022-10-17T14:35:30.201Z,8.73
2022-10-17T14:37:57.517Z,7.70
2022-10-17T14:40:27.363Z,11.13
2022-10-17T14:42:57.941Z,7.47
2022-10-17T14:45:35.830Z,8.20
2022-10-17T14:48:10.499Z,8.18
2022-10-17T14:50:38.643Z,6.32
2022-10-17T14:53:12.209Z,10.32
2022-10-17T14:55:54.199Z,8.02
2022-10-17T14:58:27.973Z,6.93
2022-10-17T15:02:13.522Z,7.07
2022-10-17T15:04:20.532Z,6.18
2022-10-17T15:06:57.247Z,8.85
2022-10-17T15:09:28.597Z,8.10
2022-10-17T15:12:01.228Z,7.72
2022-10-17T15:14:29.070Z,10.52
2022-10-17T15:16:56.562Z,7.55
2022-10-17T15:19:24.126Z,10.07
2022-10-17T15:21:52.038Z,10.18
2022-10-17T15:24:19.622Z,9.25
2022-10-17T15:26:47.136Z,13.60
2022-10-17T15:29:16.150Z,9.50
2022-10-17T15:31:43.864Z,8.60
2022-10-17T15:34:11.361Z,6.20
2022-10-17T15:36:48.349Z,8.20
2022-10-17T15:39:16.094Z,6.80
2022-10-17T15:41:44.199Z,8.82
2022-10-17T15:44:11.966Z,12.07
2022-10-17T15:46:41.748Z,7.60
2022-10-17T15:49:15.010Z,9.85
2022-10-17T15:51:42.832Z,7.10
2022-10-17T15:54:10.350Z,8.55
2022-10-17T15:56:41.319Z,12.57
2022-10-17T15:59:15.775Z,10.35
2022-10-17T16:01:43.970Z,7.70
2022-10-17T16:04:15.177Z,8.37
2022-10-17T16:06:43.584Z,9.07
2022-10-17T16:09:11.314Z,11.65
2022-10-17T16:11:43.465Z,13.73
2022-10-17T16:14:16.519Z,8.55
2022-10-17T16:16:44.763Z,7.82
2022-10-17T16:19:12.673Z,6.20
2022-10-17T16:21:41.761Z,12.67
2022-10-17T16:26:41.139Z,10.52
2022-10-17T16:29:10.185Z,7.55
2022-10-17T16:34:08.977Z,12.10
2022-10-17T16:36:36.542Z,10.38
2022-10-17T16:39:04.518Z,12.13
2022-10-17T16:41:37.320Z,10.10
2022-10-17T16:44:07.753Z,9.98
2022-10-17T16:46:37.457Z,8.45
2022-10-17T16:49:05.765Z,9.35
2022-10-17T16:51:35.845Z,10.88
2022-10-17T16:54:04.645Z,15.80
2022-10-17T16:56:33.041Z,8.07
2022-10-17T16:59:01.453Z,10.65
2022-10-17T17:01:29.475Z,11.27
2022-10-17T17:03:57.635Z,9.80
2022-10-17T17:06:28.496Z,11.80
2022-10-17T17:08:57.164Z,9.88
2022-10-17T17:11:26.905Z,11.05
2022-10-17T17:13:56.816Z,11.40
2022-10-17T17:16:26.267Z,13.23
2022-10-17T17:18:56.366Z,10.23
2022-10-17T17:21:24.321Z,10.05
2022-10-17T17:23:52.039Z,10.10
2022-10-17T17:26:22.023Z,12.85
2022-10-17T17:28:50.762Z,11.35
2022-10-17T17:31:24.347Z,12.88
2022-10-17T17:33:53.417Z,10.77
2022-10-17T17:39:12.473Z,8.93
2022-10-17T17:41:41.574Z,9.32
2022-10-17T17:44:15.753Z,9.60
2022-10-17T17:46:45.188Z,11.02
2022-10-17T17:49:12.945Z,11.40
2022-10-17T17:51:41.898Z,10.85
2022-10-17T17:54:11.666Z,13.30
2022-10-17T17:56:39.563Z,11.98
2022-10-17T17:59:07.669Z,9.82
2022-10-17T18:01:39.272Z,11.40
2022-10-17T18:04:09.064Z,14.27
2022-10-17T18:06:38.511Z,11.23
2022-10-17T18:09:08.084Z,12.93
2022-10-17T18:11:37.531Z,12.48
2022-10-17T18:14:07.840Z,12.85
2022-10-17T18:16:37.192Z,9.18
2022-10-17T18:19:07.280Z,12.65
2022-10-17T18:21:36.432Z,11.15
2022-10-17T18:24:05.171Z,12.18
2022-10-17T18:26:33.459Z,12.57
2022-10-17T18:29:01.815Z,10.30
2022-10-17T18:31:32.308Z,14.33
2022-10-17T18:34:02.971Z,13.18
2022-10-17T18:36:31.959Z,13.38
2022-10-17T18:41:28.753Z,14.68
2022-10-17T18:43:57.122Z,11.88
2022-10-17T18:46:27.807Z,14.13
2022-10-17T18:48:56.187Z,10.90
2022-10-17T18:51:25.616Z,13.02
2022-10-17T18:53:55.636Z,11.02
2022-10-17T18:56:23.682Z,12.98
2022-10-17T18:58:51.941Z,11.68
2022-10-17T19:01:22.838Z,10.85
2022-10-17T19:03:52.351Z,14.40
2022-10-17T19:06:22.806Z,13.82
2022-10-17T19:08:50.397Z,12.43
2022-10-17T19:11:21.510Z,11.50
2022-10-17T19:13:50.213Z,13.70
2022-10-17T19:16:21.387Z,17.52
2022-10-17T19:18:52.722Z,10.85
2022-10-17T19:21:22.049Z,13.75
2022-10-17T19:23:52.434Z,11.15
2022-10-17T19:26:20.884Z,14.68
2022-10-17T19:28:52.238Z,12.70
2022-10-17T19:31:26.531Z,13.98
2022-10-17T19:33:56.197Z,13.07
2022-10-17T19:36:29.067Z,14.40
2022-10-17T19:39:00.976Z,13.88
2022-10-17T19:41:28.941Z,15.13
2022-10-17T19:43:57.357Z,14.43
2022-10-17T19:46:27.251Z,10.37
2022-10-17T19:48:55.272Z,10.88
2022-10-17T19:51:25.100Z,18.40
2022-10-17T19:53:54.833Z,11.77
2022-10-17T19:56:25.084Z,15.57
2022-10-17T19:58:54.405Z,14.85
2022-10-17T20:01:27.996Z,11.52
2022-10-17T20:03:56.555Z,13.73
2022-10-17T20:06:24.854Z,11.63
2022-10-17T20:08:52.845Z,10.20
2022-10-17T20:11:23.372Z,6.43
2022-10-17T20:13:51.580Z,12.32
2022-10-17T20:16:22.015Z,15.82
2022-10-17T20:18:51.666Z,14.57
2022-10-17T20:21:22.023Z,16.45
2022-10-17T20:23:50.633Z,11.07
2022-10-17T20:26:38.607Z,12.70
2022-10-17T20:29:12.128Z,17.27
2022-10-17T20:31:41.312Z,9.38
2022-10-17T20:34:11.922Z,15.68
2022-10-17T20:36:39.853Z,17.08
2022-10-17T20:39:09.871Z,14.10
2022-10-17T20:41:37.555Z,11.43
2022-10-17T20:44:06.922Z,12.65
2022-10-17T20:46:37.808Z,14.98
2022-10-17T20:49:14.003Z,19.17
2022-10-17T20:51:41.882Z,15.82
2022-10-17T20:54:09.775Z,12.50
2022-10-17T20:56:38.632Z,12.60
2022-10-17T21:01:36.308Z,14.60
2022-10-17T21:06:53.576Z,14.60
2022-10-17T21:09:22.194Z,16.92
2022-10-17T21:11:55.727Z,16.77
2022-10-17T21:14:33.804Z,17.80
2022-10-17T21:17:04.954Z,13.02
2022-10-17T21:19:33.601Z,14.40
2022-10-17T21:22:01.747Z,11.82
2022-10-17T21:24:29.551Z,20.17
2022-10-17T21:26:57.643Z,18.38
2022-10-17T21:29:25.262Z,11.95
2022-10-17T21:31:52.999Z,14.10
2022-10-17T21:34:23.903Z,11.75
2022-10-17T21:36:51.843Z,14.20
2022-10-17T21:39:19.844Z,14.95
2022-10-17T21:41:47.532Z,12.27
2022-10-17T21:44:17.628Z,15.43
2022-10-17T21:46:46.097Z,16.25
2022-10-17T21:49:17.066Z,12.38
2022-10-17T21:51:45.419Z,12.70
2022-10-17T21:54:13.644Z,16.30
2022-10-17T21:56:41.836Z,15.13
2022-10-17T21:59:09.790Z,14.40
2022-10-17T22:01:43.437Z,12.32
2022-10-17T22:04:14.366Z,12.85
2022-10-17T22:06:43.882Z,15.15
2022-10-17T22:09:22.809Z,15.50
2022-10-17T22:11:53.398Z,12.05
2022-10-17T22:14:22.764Z,12.35
2022-10-17T22:16:50.733Z,16.20
2022-10-17T22:19:22.481Z,9.83
2022-10-17T22:21:50.745Z,12.27
2022-10-17T22:26:48.927Z,15.10
2022-10-17T22:29:17.048Z,11.05
2022-10-17T22:31:44.886Z,11.30
2022-10-17T22:34:14.827Z,8.38
2022-10-17T22:36:42.795Z,10.45
2022-10-17T22:39:11.132Z,14.55
2022-10-17T22:41:38.610Z,7.25
2022-10-17T22:44:06.359Z,11.02
2022-10-17T22:46:34.167Z,8.33
2022-10-17T22:49:01.918Z,11.52
2022-10-17T22:51:29.764Z,11.23
2022-10-17T22:53:57.219Z,10.35
2022-10-17T22:56:24.938Z,11.60
2022-10-17T22:58:53.419Z,10.70
2022-10-17T23:01:24.942Z,7.78
2022-10-17T23:03:52.905Z,12.00
2022-10-17T23:06:21.163Z,10.70
2022-10-17T23:08:49.373Z,5.95
2022-10-17T23:11:17.288Z,12.57
2022-10-17T23:13:44.910Z,9.65
2022-10-17T23:16:12.425Z,10.35
2022-10-17T23:18:40.101Z,10.55
2022-10-17T23:21:08.373Z,8.93
2022-10-17T23:23:36.850Z,10.73
2022-10-17T23:26:14.556Z,7.40
2022-10-17T23:28:43.530Z,9.32
2022-10-17T23:31:18.587Z,8.82
2022-10-17T23:33:48.027Z,7.40
2022-10-17T23:36:17.666Z,8.15
2022-10-17T23:38:46.881Z,7.65
2022-10-17T23:43:42.168Z,6.90
2022-10-17T23:46:10.145Z,7.90
2022-10-17T23:48:38.626Z,6.13
2022-10-17T23:51:07.985Z,8.25
2022-10-17T23:56:05.227Z,5.65
2022-10-17T23:58:32.871Z,7.60
